Time;durP1;ratioP1;P1;durP2;ratioP2;P2;SDS_P1;SDS_P2;PMS_P1;PMS_P2;Temp;Humidity;BMP_temperature;BMP_pressure;BME280_temperature;BME280_humidity;BME280_pressure;Samples;Min_cycle;Max_cycle;Signal;HPM_P1;HPM_P2
2021/07/03 00:00:19;;;;;;;8.50;5.25;;;;;21.70;101562.00;;;;5068222;28;20975;-82
2021/07/03 00:02:47;;;;;;;10.50;5.82;;;;;21.70;101562.00;;;;5070445;28;20218;-82
2021/07/03 00:05:15;;;;;;;6.88;5.50;;;;;21.70;101564.00;;;;5087401;28;20730;-82
2021/07/03 00:07:42;;;;;;;7.30;5.40;;;;;21.70;101557.00;;;;5078398;28;20198;-81
2021/07/03 00:10:10;;;;;;;6.95;5.78;;;;;21.60;101564.00;;;;5067848;28;20195;-82
2021/07/03 00:12:38;;;;;;;7.72;5.80;;;;;21.60;101564.00;;;;5068163;28;20209;-82
2021/07/03 00:15:07;;;;;;;7.20;5.20;;;;;21.60;101559.00;;;;5068542;28;20198;-82
2021/07/03 00:17:34;;;;;;;9.90;5.95;;;;;21.60;101565.00;;;;5075268;28;20198;-82
2021/07/03 00:20:04;;;;;;;7.45;6.03;;;;;21.50;101563.00;;;;5088386;28;20981;-82
2021/07/03 00:22:31;;;;;;;7.95;5.80;;;;;21.50;101564.00;;;;5080623;28;20202;-82
2021/07/03 00:24:59;;;;;;;9.75;6.30;;;;;21.50;101571.00;;;;5078422;28;20237;-81
2021/07/03 00:27:26;;;;;;;9.07;5.65;;;;;21.50;101573.00;;;;5082831;28;20210;-82
2021/07/03 00:29:53;;;;;;;9.27;4.95;;;;;21.50;101578.00;;;;5088216;28;20202;-82
2021/07/03 00:32:20;;;;;;;7.20;5.88;;;;;21.40;101578.00;;;;5072624;28;20195;-81
2021/07/03 00:34:47;;;;;;;6.15;5.13;;;;;21.40;101572.00;;;;5071499;28;20210;-82
2021/07/03 00:37:16;;;;;;;14.82;6.80;;;;;21.40;101575.00;;;;5071508;28;20191;-81
2021/07/03 00:39:43;;;;;;;8.15;5.80;;;;;21.40;101570.00;;;;5081309;28;20213;-81
2021/07/03 00:42:11;;;;;;;7.50;5.85;;;;;21.40;101568.00;;;;5088727;28;20198;-81
2021/07/03 00:44:38;;;;;;;7.05;5.60;;;;;21.30;101563.00;;;;5091615;28;20706;-81
2021/07/03 00:47:08;;;;;;;6.40;5.45;;;;;21.30;101563.00;;;;5091466;28;20194;-81
2021/07/03 00:49:36;;;;;;;7.80;5.28;;;;;21.30;101564.00;;;;5091218;28;20194;-81
2021/07/03 00:52:05;;;;;;;6.13;4.85;;;;;21.20;101555.00;;;;5074078;28;20203;-80
2021/07/03 00:54:36;;;;;;;7.25;4.90;;;;;21.20;101559.00;;;;5071079;28;20210;-80
2021/07/03 00:57:04;;;;;;;8.65;5.82;;;;;21.20;101553.00;;;;5071491;28;20210;-81
2021/07/03 00:59:34;;;;;;;8.93;5.93;;;;;21.20;101554.00;;;;5071579;28;20207;-81
2021/07/03 01:02:01;;;;;;;7.80;4.55;;;;;21.10;101557.00;;;;5072471;28;20215;-81
2021/07/03 01:04:28;;;;;;;8.88;5.20;;;;;21.10;101555.00;;;;5097849;28;20224;-81
2021/07/03 01:06:58;;;;;;;6.40;5.47;;;;;21.10;101551.00;;;;5109711;28;20202;-81
2021/07/03 01:09:26;;;;;;;6.68;5.20;;;;;21.10;101547.00;;;;5082820;28;20726;-81
2021/07/03 01:11:55;;;;;;;8.82;6.47;;;;;21.00;101546.00;;;;5087613;28;20190;-81
2021/07/03 01:14:22;;;;;;;8.98;5.63;;;;;21.00;101547.00;;;;5079184;28;20253;-81
2021/07/03 01:16:50;;;;;;;6.30;4.95;;;;;21.00;101546.00;;;;5091195;28;20213;-81
2021/07/03 01:19:17;;;;;;;6.13;5.00;;;;;21.00;101539.00;;;;5089131;28;20221;-80
2021/07/03 01:21:49;;;;;;;6.60;5.43;;;;;20.90;101540.00;;;;5088727;28;20190;-81
2021/07/03 01:24:17;;;;;;;6.50;5.20;;;;;21.00;101534.00;;;;5085002;28;20226;-81
2021/07/03 01:26:46;;;;;;;11.45;5.63;;;;;20.90;101538.00;;;;5070315;28;20206;-81
2021/07/03 01:29:14;;;;;;;8.48;5.45;;;;;20.90;101540.00;;;;5089546;28;20552;-81
2021/07/03 01:31:41;;;;;;;6.05;4.95;;;;;20.90;101544.00;;;;5081555;28;20969;-81
2021/07/03 01:34:09;;;;;;;8.85;5.40;;;;;20.90;101544.00;;;;5090745;28;20226;-81
2021/07/03 01:36:36;;;;;;;8.15;6.00;;;;;20.90;101542.00;;;;5090812;28;20210;-80
2021/07/03 01:39:06;;;;;;;7.35;4.75;;;;;20.80;101544.00;;;;5090784;28;20201;-81
2021/07/03 01:41:34;;;;;;;6.35;5.13;;;;;20.80;101544.00;;;;5076008;28;20673;-81
2021/07/03 01:44:01;;;;;;;8.50;6.63;;;;;20.80;101542.00;;;;5086562;28;20563;-81
2021/07/03 01:46:28;;;;;;;10.18;5.63;;;;;20.80;101544.00;;;;5070365;28;20199;-81
2021/07/03 01:48:59;;;;;;;7.28;5.50;;;;;20.80;101547.00;;;;5071862;28;20210;-81
2021/07/03 01:51:27;;;;;;;10.43;6.32;;;;;20.80;101554.00;;;;5070800;28;20206;-81
2021/07/03 01:53:54;;;;;;;7.22;5.30;;;;;20.80;101557.00;;;;5070845;28;20209;-81
2021/07/03 01:56:22;;;;;;;7.88;5.47;;;;;20.70;101550.00;;;;5070831;28;20203;-81
2021/07/03 01:58:50;;;;;;;9.38;5.63;;;;;20.70;101550.00;;;;5069392;28;20202;-81
2021/07/03 02:01:17;;;;;;;7.82;5.72;;;;;20.70;101548.00;;;;5070389;28;20215;-81
2021/07/03 02:03:44;;;;;;;8.23;6.00;;;;;20.70;101540.00;;;;5080466;28;20198;-81
2021/07/03 02:06:12;;;;;;;7.15;5.80;;;;;20.70;101543.00;;;;5072829;28;20218;-81
2021/07/03 02:08:39;;;;;;;5.93;5.32;;;;;20.70;101544.00;;;;5088210;28;20206;-81
2021/07/03 02:11:06;;;;;;;7.82;5.43;;;;;20.70;101543.00;;;;5088168;28;20602;-81
2021/07/03 02:13:35;;;;;;;6.80;4.88;;;;;20.60;101535.00;;;;5070091;28;20210;-81
2021/07/03 02:16:03;;;;;;;7.95;5.88;;;;;20.70;101534.00;;;;5070439;28;20211;-80
2021/07/03 02:18:30;;;;;;;8.13;5.93;;;;;20.60;101527.00;;;;5077489;28;20194;-81
2021/07/03 02:20:58;;;;;;;7.10;5.03;;;;;20.60;101527.00;;;;5083614;28;20667;-81
2021/07/03 02:23:25;;;;;;;7.13;5.45;;;;;20.60;101524.00;;;;5088570;28;20205;-81
2021/07/03 02:25:52;;;;;;;8.40;5.97;;;;;20.60;101517.00;;;;5089045;28;20218;-81
2021/07/03 02:28:20;;;;;;;7.90;5.65;;;;;20.60;101507.00;;;;5081647;28;20676;-81
2021/07/03 02:30:48;;;;;;;8.02;5.10;;;;;20.60;101512.00;;;;5069686;28;20202;-81
2021/07/03 02:33:16;;;;;;;8.70;5.68;;;;;20.60;101510.00;;;;5068824;28;20604;-81
2021/07/03 02:35:43;;;;;;;7.18;5.57;;;;;20.60;101507.00;;;;5069365;28;20209;-81
2021/07/03 02:38:11;;;;;;;10.32;6.25;;;;;20.60;101503.00;;;;5075515;28;20197;-81
2021/07/03 02:40:38;;;;;;;10.50;6.97;;;;;20.50;101505.00;;;;5087566;28;20202;-81
2021/07/03 02:43:05;;;;;;;8.35;6.30;;;;;20.50;101506.00;;;;5089789;28;20202;-81
2021/07/03 02:45:32;;;;;;;8.23;6.15;;;;;20.60;101502.00;;;;5089463;28;20266;-81
2021/07/03 02:48:01;;;;;;;10.48;6.75;;;;;20.50;101511.00;;;;5085432;28;20218;-81
2021/07/03 02:50:28;;;;;;;10.38;7.55;;;;;20.50;101503.00;;;;5068635;28;20207;-81
2021/07/03 02:52:55;;;;;;;10.15;6.70;;;;;20.50;101500.00;;;;5069260;28;20207;-81
2021/07/03 02:55:23;;;;;;;13.05;8.25;;;;;20.50;101501.00;;;;5073502;28;20209;-81
2021/07/03 02:57:50;;;;;;;10.10;7.43;;;;;20.50;101502.00;;;;5081141;28;20754;-82
2021/07/03 03:00:18;;;;;;;9.35;7.15;;;;;20.50;101496.00;;;;5069286;28;20199;-81
2021/07/03 03:02:45;;;;;;;10.57;7.40;;;;;20.50;101495.00;;;;5072690;28;20222;-81
2021/07/03 03:05:15;;;;;;;12.70;7.43;;;;;20.50;101494.00;;;;5089222;28;20228;-81
2021/07/03 03:07:43;;;;;;;9.25;6.97;;;;;20.50;101496.00;;;;5080212;28;20199;-81
2021/07/03 03:10:13;;;;;;;10.18;7.03;;;;;20.50;101494.00;;;;5069338;28;20278;-80
2021/07/03 03:12:41;;;;;;;10.88;7.40;;;;;20.50;101492.00;;;;5069157;28;20199;-81
2021/07/03 03:15:10;;;;;;;11.00;7.78;;;;;20.60;101490.00;;;;5068710;28;20195;-81
2021/07/03 03:17:37;;;;;;;9.82;6.97;;;;;20.60;101489.00;;;;5068505;28;20206;-81
2021/07/03 03:20:07;;;;;;;8.63;6.25;;;;;20.60;101487.00;;;;5068488;28;20195;-81
2021/07/03 03:22:36;;;;;;;9.00;6.20;;;;;20.60;101487.00;;;;5084144;28;20190;-81
2021/07/03 03:25:05;;;;;;;9.40;6.50;;;;;20.60;101489.00;;;;5086422;28;20233;-81
2021/07/03 03:27:33;;;;;;;10.18;7.18;;;;;20.60;101479.00;;;;5071820;28;20210;-81
2021/07/03 03:30:00;;;;;;;10.88;7.85;;;;;20.60;101489.00;;;;5069285;28;20210;-81
2021/07/03 03:32:27;;;;;;;10.55;7.43;;;;;20.60;101483.00;;;;5068078;28;20383;-81
2021/07/03 03:34:54;;;;;;;10.80;8.30;;;;;20.60;101482.00;;;;5068367;28;20196;-81
2021/07/03 03:37:22;;;;;;;12.02;8.30;;;;;20.60;101482.00;;;;5068747;28;20203;-81
2021/07/03 03:39:50;;;;;;;11.50;7.45;;;;;20.60;101484.00;;;;5068504;28;21043;-81
2021/07/03 03:42:17;;;;;;;11.68;7.95;;;;;20.70;101480.00;;;;5068054;28;20203;-81
2021/07/03 03:44:45;;;;;;;10.00;7.45;;;;;20.70;101482.00;;;;5068347;28;20198;-81
2021/07/03 03:47:12;;;;;;;12.55;7.38;;;;;20.70;101475.00;;;;5081078;28;20786;-81
2021/07/03 03:49:39;;;;;;;13.15;7.78;;;;;20.70;101475.00;;;;5088767;28;20205;-81
2021/07/03 03:52:09;;;;;;;11.73;8.10;;;;;20.70;101475.00;;;;5084257;28;20199;-81
2021/07/03 03:54:37;;;;;;;14.93;8.98;;;;;20.80;101480.00;;;;5069541;28;20202;-81
2021/07/03 03:57:28;;;;;;;12.13;7.60;;;;;20.80;101476.00;;;;5074153;28;20195;-81
2021/07/03 03:59:56;;;;;;;11.45;7.18;;;;;20.80;101477.00;;;;5068887;28;20227;-81
2021/07/03 04:02:23;;;;;;;11.32;7.53;;;;;20.80;101479.00;;;;5068502;28;20575;-81
2021/07/03 04:04:51;;;;;;;15.85;8.07;;;;;20.90;101476.00;;;;5099738;28;20199;-81
2021/07/03 04:07:18;;;;;;;12.93;8.52;;;;;20.90;101476.00;;;;5076308;28;20209;-81
2021/07/03 04:09:46;;;;;;;12.57;7.63;;;;;20.90;101473.00;;;;5071718;28;20198;-81
2021/07/03 04:12:15;;;;;;;11.55;7.90;;;;;20.90;101477.00;;;;5072544;28;20203;-81
2021/07/03 04:14:42;;;;;;;11.20;8.15;;;;;21.00;101470.00;;;;5071864;28;20199;-81
2021/07/03 04:17:09;;;;;;;13.68;8.18;;;;;21.00;101475.00;;;;5082272;28;20201;-82
2021/07/03 04:19:37;;;;;;;11.15;7.05;;;;;21.00;101476.00;;;;5072237;28;20563;-81
2021/07/03 04:22:04;;;;;;;10.48;7.57;;;;;21.00;101467.00;;;;5091437;28;20194;-81
2021/07/03 04:24:32;;;;;;;10.60;7.90;;;;;21.10;101476.00;;;;5092006;28;20201;-81
2021/07/03 04:26:59;;;;;;;12.98;8.13;;;;;21.10;101475.00;;;;5089041;28;20229;-81
2021/07/03 04:29:28;;;;;;;12.38;8.05;;;;;21.10;101476.00;;;;5072899;28;20618;-80
2021/07/03 04:31:55;;;;;;;10.77;8.25;;;;;21.10;101485.00;;;;5072435;28;20199;-81
2021/07/03 04:34:22;;;;;;;10.77;7.93;;;;;21.10;101487.00;;;;5071156;28;20238;-81
2021/07/03 04:36:50;;;;;;;11.02;7.95;;;;;21.20;101488.00;;;;5077941;28;20209;-81
2021/07/03 04:39:17;;;;;;;11.82;8.85;;;;;21.20;101485.00;;;;5071999;28;20231;-81
2021/07/03 04:41:45;;;;;;;12.60;8.40;;;;;21.20;101486.00;;;;5071252;28;20206;-81
2021/07/03 04:44:13;;;;;;;10.93;7.63;;;;;21.30;101482.00;;;;5071647;28;20202;-82
2021/07/03 04:46:42;;;;;;;10.52;7.75;;;;;21.30;101489.00;;;;5072123;28;20230;-81
2021/07/03 04:49:10;;;;;;;11.15;7.70;;;;;21.30;101488.00;;;;5077406;28;20205;-81
2021/07/03 04:51:38;;;;;;;10.43;7.75;;;;;21.40;101480.00;;;;5088904;28;20194;-81
2021/07/03 04:54:05;;;;;;;10.23;8.50;;;;;21.40;101483.00;;;;5090831;28;20191;-81
2021/07/03 04:56:33;;;;;;;9.63;7.53;;;;;21.40;101477.00;;;;5089665;28;20206;-81
2021/07/03 04:59:00;;;;;;;9.55;7.75;;;;;21.40;101484.00;;;;5087633;28;20201;-81
2021/07/03 05:01:27;;;;;;;9.80;7.00;;;;;21.50;101479.00;;;;5083737;28;20587;-81
2021/07/03 05:03:56;;;;;;;11.27;7.90;;;;;21.50;101474.00;;;;5090900;28;20198;-81
2021/07/03 05:06:23;;;;;;;10.55;8.25;;;;;21.50;101486.00;;;;5089916;28;20234;-81
2021/07/03 05:08:51;;;;;;;9.82;7.63;;;;;21.60;101481.00;;;;5090246;28;20199;-81
2021/07/03 05:11:18;;;;;;;11.48;7.82;;;;;21.60;101483.00;;;;5089549;28;20198;-81
2021/07/03 05:13:45;;;;;;;14.45;10.32;;;;;21.70;101489.00;;;;5078775;28;20206;-81
2021/07/03 05:16:12;;;;;;;14.40;10.43;;;;;21.70;101485.00;;;;5086694;28;21091;-81
2021/07/03 05:18:40;;;;;;;16.20;11.20;;;;;21.80;101482.00;;;;5081870;28;20225;-81
2021/07/03 05:21:09;;;;;;;17.00;11.10;;;;;21.80;101479.00;;;;5074644;28;20199;-81
2021/07/03 05:23:36;;;;;;;16.48;10.85;;;;;21.90;101474.00;;;;5075678;28;20195;-80
2021/07/03 05:26:04;;;;;;;17.63;11.75;;;;;22.00;101475.00;;;;5076327;28;20223;-81
2021/07/03 05:28:31;;;;;;;18.70;12.25;;;;;22.00;101477.00;;;;5071247;28;20199;-80
2021/07/03 05:30:58;;;;;;;16.48;11.63;;;;;22.10;101473.00;;;;5071077;28;20202;-81
2021/07/03 05:33:26;;;;;;;16.77;12.02;;;;;22.20;101469.00;;;;5070832;28;20231;-81
2021/07/03 05:35:53;;;;;;;20.25;11.85;;;;;22.20;101469.00;;;;5070785;28;20199;-81
2021/07/03 05:38:21;;;;;;;20.25;12.45;;;;;22.30;101472.00;;;;5071810;28;20191;-81
2021/07/03 05:40:49;;;;;;;20.58;13.07;;;;;22.40;101468.00;;;;5081455;28;20202;-81
2021/07/03 05:43:16;;;;;;;17.02;12.13;;;;;22.50;101466.00;;;;5090805;28;20205;-80
2021/07/03 05:45:43;;;;;;;17.85;11.93;;;;;22.60;101468.00;;;;5089887;28;20225;-81
2021/07/03 05:48:11;;;;;;;17.50;12.18;;;;;22.70;101472.00;;;;5090965;28;20206;-81
2021/07/03 05:50:38;;;;;;;18.05;12.35;;;;;22.70;101466.00;;;;5086105;28;20214;-80
2021/07/03 05:53:05;;;;;;;19.92;13.05;;;;;22.80;101459.00;;;;5079895;28;20664;-80
2021/07/03 05:55:34;;;;;;;18.15;13.43;;;;;22.90;101460.00;;;;5076238;28;20190;-81
2021/07/03 05:58:01;;;;;;;20.38;12.43;;;;;23.00;101457.00;;;;5077647;28;20679;-81
2021/07/03 06:00:28;;;;;;;17.50;12.48;;;;;23.10;101453.00;;;;5090274;28;20206;-80
2021/07/03 06:02:56;;;;;;;18.27;13.45;;;;;23.20;101466.00;;;;5083282;28;20217;-81
2021/07/03 06:05:23;;;;;;;21.85;12.63;;;;;23.20;101455.00;;;;5078822;28;20575;-81
2021/07/03 06:07:50;;;;;;;15.65;12.55;;;;;23.30;101460.00;;;;5076751;28;20191;-81
2021/07/03 06:10:17;;;;;;;14.52;11.30;;;;;23.30;101463.00;;;;5084654;28;20187;-81
2021/07/03 06:12:46;;;;;;;19.20;13.40;;;;;23.40;101462.00;;;;5071797;28;20207;-81
2021/07/03 06:15:15;;;;;;;16.00;11.55;;;;;23.50;101455.00;;;;5083405;28;20573;-81
2021/07/03 06:17:43;;;;;;;18.10;12.57;;;;;23.50;101454.00;;;;5071371;28;20198;-81
2021/07/03 06:20:11;;;;;;;18.00;13.85;;;;;23.60;101456.00;;;;5080246;28;20248;-80
2021/07/03 06:22:39;;;;;;;19.85;12.63;;;;;23.60;101454.00;;;;5071948;28;20213;-80
2021/07/03 06:25:08;;;;;;;17.33;12.20;;;;;23.70;101455.00;;;;5079501;28;20698;-80
2021/07/03 06:27:37;;;;;;;16.88;12.05;;;;;23.70;101457.00;;;;5081148;28;20225;-81
2021/07/03 06:30:06;;;;;;;15.82;11.35;;;;;23.80;101454.00;;;;5074741;28;20229;-81
2021/07/03 06:32:34;;;;;;;18.83;11.88;;;;;23.90;101451.00;;;;5087292;28;20205;-80
2021/07/03 06:35:01;;;;;;;16.70;12.27;;;;;23.90;101456.00;;;;5088079;28;20233;-81
2021/07/03 06:37:29;;;;;;;13.75;10.00;;;;;23.90;101455.00;;;;5086785;28;20199;-82
2021/07/03 06:39:56;;;;;;;18.77;12.68;;;;;24.00;101454.00;;;;5086116;28;20197;-82
2021/07/03 06:42:25;;;;;;;17.05;12.90;;;;;24.00;101456.00;;;;5079133;28;20688;-81
2021/07/03 06:44:52;;;;;;;18.40;12.32;;;;;24.00;101455.00;;;;5083542;28;20222;-81
2021/07/03 06:47:21;;;;;;;18.83;12.98;;;;;24.00;101460.00;;;;5082731;28;20222;-81
2021/07/03 06:49:48;;;;;;;15.07;12.65;;;;;24.10;101463.00;;;;5076483;28;20198;-82
2021/07/03 06:52:15;;;;;;;17.88;12.85;;;;;24.20;101461.00;;;;5069255;28;20202;-82
2021/07/03 06:54:43;;;;;;;17.65;11.43;;;;;24.30;101459.00;;;;5069989;28;20199;-83
2021/07/03 06:57:12;;;;;;;17.88;12.40;;;;;24.40;101459.00;;;;5068709;28;21026;-82
2021/07/03 06:59:39;;;;;;;19.55;13.45;;;;;24.50;101462.00;;;;5068367;28;20205;-81
2021/07/03 07:02:06;;;;;;;16.13;12.35;;;;;24.60;101460.00;;;;5071004;28;20222;-83
2021/07/03 07:04:35;;;;;;;21.15;13.05;;;;;24.70;101454.00;;;;5070463;28;20207;-82
2021/07/03 07:07:03;;;;;;;17.83;12.68;;;;;24.70;101453.00;;;;5078021;28;20903;-82
2021/07/03 07:09:30;;;;;;;16.73;12.50;;;;;24.80;101451.00;;;;5077434;28;20210;-81
2021/07/03 07:11:58;;;;;;;17.20;11.57;;;;;25.00;101454.00;;;;5080388;28;20198;-84
2021/07/03 07:14:26;;;;;;;18.15;12.60;;;;;25.10;101462.00;;;;5073855;28;20286;-82
2021/07/03 07:16:54;;;;;;;17.27;12.93;;;;;25.20;101470.00;;;;5078432;28;20195;-81
2021/07/03 07:19:21;;;;;;;15.57;11.13;;;;;25.30;101466.00;;;;5076522;28;22129;-81
2021/07/03 07:21:50;;;;;;;15.65;10.98;;;;;25.40;101466.00;;;;5068512;28;20207;-82
2021/07/03 07:24:17;;;;;;;13.50;11.05;;;;;25.50;101462.00;;;;5072995;28;20206;-82
2021/07/03 07:26:46;;;;;;;15.05;11.05;;;;;25.70;101462.00;;;;5070358;28;20225;-80
2021/07/03 07:29:13;;;;;;;20.02;13.40;;;;;25.80;101459.00;;;;5071608;28;20199;-81
2021/07/03 07:31:40;;;;;;;17.10;11.70;;;;;25.90;101463.00;;;;5071762;28;20191;-83
2021/07/03 07:34:07;;;;;;;15.30;11.45;;;;;26.00;101463.00;;;;5082315;28;20231;-79
2021/07/03 07:36:35;;;;;;;16.17;11.15;;;;;26.10;101460.00;;;;5069013;28;20541;-83
2021/07/03 07:39:03;;;;;;;12.52;10.25;;;;;26.20;101456.00;;;;5068052;28;20195;-84
2021/07/03 07:41:31;;;;;;;16.63;10.70;;;;;26.30;101459.00;;;;5070719;28;20205;-80
2021/07/03 07:43:58;;;;;;;13.40;10.63;;;;;26.40;101457.00;;;;5073351;28;20203;-82
2021/07/03 07:46:25;;;;;;;13.63;10.65;;;;;26.50;101459.00;;;;5068822;28;20211;-83
2021/07/03 07:48:54;;;;;;;12.60;10.40;;;;;26.70;101457.00;;;;5067714;28;20202;-81
2021/07/03 07:51:21;;;;;;;19.00;9.80;;;;;26.80;101457.00;;;;5072257;28;20207;-81
2021/07/03 07:53:48;;;;;;;14.88;9.85;;;;;26.90;101456.00;;;;5075823;28;20688;-83
2021/07/03 07:56:18;;;;;;;14.98;9.85;;;;;27.00;101458.00;;;;5072463;28;20198;-81
2021/07/03 07:58:46;;;;;;;14.25;10.52;;;;;27.10;101454.00;;;;5070877;28;20656;-81
2021/07/03 08:01:14;;;;;;;12.10;9.10;;;;;27.20;101454.00;;;;5072902;28;20223;-81
2021/07/03 08:03:41;;;;;;;12.27;8.05;;;;;27.30;101446.00;;;;5074849;28;20191;-84
2021/07/03 08:06:09;;;;;;;11.55;8.82;;;;;27.40;101442.00;;;;5075196;28;20206;-83
2021/07/03 08:08:36;;;;;;;11.75;9.02;;;;;27.50;101443.00;;;;5075139;28;20193;-81
2021/07/03 08:11:04;;;;;;;10.98;9.02;;;;;27.60;101448.00;;;;5071341;28;20198;-82
2021/07/03 08:13:32;;;;;;;12.63;8.38;;;;;27.70;101448.00;;;;5067722;28;20673;-82
2021/07/03 08:15:59;;;;;;;13.73;9.10;;;;;27.80;101444.00;;;;5070615;28;20206;-80
2021/07/03 08:18:27;;;;;;;12.63;9.68;;;;;27.90;101443.00;;;;5068488;28;20198;-79
2021/07/03 08:20:54;;;;;;;11.77;8.82;;;;;28.00;101441.00;;;;5067804;28;20195;-79
2021/07/03 08:23:22;;;;;;;10.82;8.75;;;;;28.10;101437.00;;;;5067390;28;20630;-80
2021/07/03 08:25:49;;;;;;;10.05;7.93;;;;;28.20;101436.00;;;;5070768;28;20209;-79
2021/07/03 08:28:17;;;;;;;13.35;9.35;;;;;28.30;101428.00;;;;5067474;28;20260;-81
2021/07/03 08:30:45;;;;;;;14.18;10.15;;;;;28.40;101419.00;;;;5068928;28;20203;-80
2021/07/03 08:33:13;;;;;;;11.70;8.25;;;;;28.50;101434.00;;;;5087882;28;20238;-81
2021/07/03 08:35:40;;;;;;;10.90;7.43;;;;;28.60;101432.00;;;;5077718;28;20199;-83
2021/07/03 08:38:07;;;;;;;10.75;7.82;;;;;28.80;101427.00;;;;5079045;28;20617;-83
2021/07/03 08:40:35;;;;;;;9.68;7.47;;;;;28.80;101430.00;;;;5078622;28;20213;-82
2021/07/03 08:43:02;;;;;;;13.30;8.88;;;;;28.90;101427.00;;;;5075293;28;20194;-81
2021/07/03 08:45:29;;;;;;;10.43;7.93;;;;;29.00;101428.00;;;;5073865;28;20203;-83
2021/07/03 08:47:58;;;;;;;9.05;7.38;;;;;29.10;101429.00;;;;5067896;28;20219;-81
2021/07/03 08:50:25;;;;;;;14.18;7.38;;;;;29.20;101429.00;;;;5068360;28;20661;-82
2021/07/03 08:52:53;;;;;;;10.13;7.85;;;;;29.30;101430.00;;;;5077690;28;20202;-81
2021/07/03 08:55:22;;;;;;;8.68;7.25;;;;;29.40;101427.00;;;;5078309;28;20609;-81
2021/07/03 08:57:51;;;;;;;11.52;8.70;;;;;29.50;101423.00;;;;5091327;28;20198;-81
2021/07/03 09:00:21;;;;;;;12.07;7.07;;;;;29.60;101419.00;;;;5091496;28;20206;-82
2021/07/03 09:02:49;;;;;;;10.02;7.35;;;;;29.70;101417.00;;;;5090236;28;20221;-82
2021/07/03 09:05:30;;;;;;;8.75;6.75;;;;;29.70;101414.00;;;;5077044;28;20644;-81
2021/07/03 09:08:00;;;;;;;9.48;6.97;;;;;29.90;101413.00;;;;5077273;28;20214;-81
2021/07/03 09:10:28;;;;;;;7.90;6.35;;;;;30.00;101417.00;;;;5076931;28;20206;-82
2021/07/03 09:12:58;;;;;;;9.10;6.93;;;;;30.10;101408.00;;;;5075302;28;20191;-82
2021/07/03 09:15:28;;;;;;;8.30;6.18;;;;;30.20;101406.00;;;;5074424;28;20291;-82
2021/07/03 09:17:57;;;;;;;7.72;6.40;;;;;30.30;101414.00;;;;5081847;28;20187;-84
2021/07/03 09:20:28;;;;;;;8.43;6.28;;;;;30.40;101413.00;;;;5071041;28;20914;-83
2021/07/03 09:23:00;;;;;;;7.63;5.47;;;;;30.40;101417.00;;;;5082549;28;20199;-83
2021/07/03 09:25:28;;;;;;;8.60;6.88;;;;;30.50;101409.00;;;;5074045;28;20217;-82
2021/07/03 09:27:56;;;;;;;8.07;5.75;;;;;30.50;101404.00;;;;5074282;28;20250;-83
2021/07/03 09:30:24;;;;;;;6.30;5.60;;;;;30.50;101409.00;;;;5083574;28;20199;-84
2021/07/03 09:32:53;;;;;;;6.05;5.43;;;;;30.50;101405.00;;;;5077663;28;20226;-83
2021/07/03 09:35:21;;;;;;;6.47;5.03;;;;;30.50;101404.00;;;;5077423;28;20226;-82
2021/07/03 09:37:50;;;;;;;5.43;4.25;;;;;30.50;101407.00;;;;5085533;28;20210;-83
2021/07/03 09:40:19;;;;;;;6.53;5.07;;;;;30.50;101407.00;;;;5079280;28;20587;-83
2021/07/03 09:42:46;;;;;;;6.13;5.10;;;;;30.50;101407.00;;;;5088248;28;20264;-83
2021/07/03 09:45:15;;;;;;;5.70;4.63;;;;;30.50;101404.00;;;;5091055;28;20644;-85
2021/07/03 09:47:43;;;;;;;6.05;5.28;;;;;30.50;101406.00;;;;5090520;28;20218;-83
2021/07/03 09:50:13;;;;;;;5.47;4.85;;;;;30.60;101401.00;;;;5084555;28;20209;-84
2021/07/03 09:52:41;;;;;;;6.95;4.30;;;;;30.60;101399.00;;;;5078024;28;20570;-83
2021/07/03 09:55:11;;;;;;;6.22;4.72;;;;;30.60;101406.00;;;;5084903;28;20221;-84
2021/07/03 09:57:40;;;;;;;6.95;4.13;;;;;30.70;101401.00;;;;5089946;28;20209;-84
2021/07/03 10:00:10;;;;;;;5.50;4.53;;;;;30.70;101404.00;;;;5075757;28;20723;-83
2021/07/03 10:02:38;;;;;;;7.05;4.60;;;;;30.80;101403.00;;;;5089630;28;20305;-84
2021/07/03 10:05:06;;;;;;;5.53;4.50;;;;;30.90;101408.00;;;;5084502;28;20561;-83
2021/07/03 10:07:39;;;;;;;9.18;4.53;;;;;31.00;101396.00;;;;5096228;28;20706;-83
2021/07/03 10:10:13;;;;;;;6.95;4.90;;;;;31.10;101398.00;;;;5081408;28;20195;-82
2021/07/03 10:12:43;;;;;;;6.68;4.47;;;;;31.10;101394.00;;;;5069553;28;20207;-83
2021/07/03 10:15:13;;;;;;;6.18;4.50;;;;;31.20;101400.00;;;;5083195;28;20195;-82
2021/07/03 10:17:40;;;;;;;6.28;4.45;;;;;31.20;101403.00;;;;5079602;28;20202;-83
2021/07/03 10:20:15;;;;;;;6.05;4.97;;;;;31.20;101399.00;;;;5084747;28;20567;-80
2021/07/03 10:22:56;;;;;;;11.05;4.85;;;;;31.30;101399.00;;;;5080906;28;20185;-80
2021/07/03 10:25:34;;;;;;;6.38;5.28;;;;;31.30;101407.00;;;;5089199;28;20225;-81
2021/07/03 10:28:04;;;;;;;7.30;5.43;;;;;31.40;101408.00;;;;5084504;28;20996;-80
2021/07/03 10:30:33;;;;;;;4.70;4.13;;;;;31.40;101396.00;;;;5076615;28;20206;-82
2021/07/03 10:33:01;;;;;;;7.15;5.28;;;;;31.40;101394.00;;;;5085700;28;20222;-83
2021/07/03 10:35:39;;;;;;;7.85;5.57;;;;;31.30;101385.00;;;;5072635;28;20207;-85
2021/07/03 10:38:19;;;;;;;6.15;5.20;;;;;31.20;101398.00;;;;5069046;28;20210;-87
2021/07/03 10:40:49;;;;;;;6.88;5.38;;;;;31.20;101390.00;;;;5069286;28;20641;-83
2021/07/03 10:43:16;;;;;;;5.90;5.25;;;;;31.20;101385.00;;;;5069633;28;20206;-85
2021/07/03 10:45:46;;;;;;;8.20;5.60;;;;;31.10;101389.00;;;;5069080;28;20199;-84
2021/07/03 10:48:19;;;;;;;6.85;5.53;;;;;31.00;101384.00;;;;5068783;28;20766;-84
2021/07/03 10:50:46;;;;;;;9.40;5.78;;;;;30.90;101383.00;;;;5069715;28;20302;-84
2021/07/03 10:53:26;;;;;;;8.23;6.05;;;;;30.80;101383.00;;;;5069310;28;20203;-84
2021/07/03 10:55:55;;;;;;;7.28;5.13;;;;;30.70;101379.00;;;;5068653;28;20195;-85
2021/07/03 10:58:29;;;;;;;6.97;5.60;;;;;30.70;101379.00;;;;5069302;28;20206;-85
2021/07/03 11:01:09;;;;;;;6.93;5.55;;;;;30.60;101376.00;;;;5069596;28;20235;-84
2021/07/03 11:03:44;;;;;;;5.90;4.97;;;;;30.50;101371.00;;;;5073572;28;20897;-84
2021/07/03 11:06:15;;;;;;;7.38;5.70;;;;;30.50;101368.00;;;;5088882;28;20225;-84
2021/07/03 11:08:44;;;;;;;8.30;5.90;;;;;30.50;101367.00;;;;5078637;28;20226;-85
2021/07/03 11:11:14;;;;;;;6.43;5.63;;;;;30.40;101368.00;;;;5069016;28;20207;-83
2021/07/03 11:13:42;;;;;;;6.38;5.15;;;;;30.50;101364.00;;;;5068779;28;20294;-85
2021/07/03 11:16:11;;;;;;;6.20;5.60;;;;;30.50;101364.00;;;;5068730;28;20207;-84
2021/07/03 11:18:42;;;;;;;8.43;5.07;;;;;30.40;101357.00;;;;5068055;28;20218;-87
2021/07/03 11:21:12;;;;;;;8.13;5.85;;;;;30.50;101350.00;;;;5069095;28;20202;-84
2021/07/03 11:23:39;;;;;;;7.03;5.10;;;;;30.60;101356.00;;;;5068366;28;20203;-85
2021/07/03 11:26:12;;;;;;;6.50;5.63;;;;;30.60;101342.00;;;;5075399;28;20284;-82
2021/07/03 11:28:40;;;;;;;6.30;5.57;;;;;30.70;101338.00;;;;5077625;28;20230;-84
2021/07/03 11:31:08;;;;;;;8.48;5.93;;;;;30.80;101331.00;;;;5074139;28;20194;-80
2021/07/03 11:33:37;;;;;;;7.15;5.60;;;;;30.80;101336.00;;;;5074956;28;20226;-81
2021/07/03 11:36:06;;;;;;;7.88;5.70;;;;;30.90;101329.00;;;;5071947;28;20213;-81
2021/07/03 11:38:56;;;;;;;6.82;5.63;;;;;30.90;101323.00;;;;5036398;28;20300;-80
2021/07/03 11:41:26;;;;;;;9.65;6.15;;;;;31.00;101323.00;;;;5069958;28;21834;-81
2021/07/03 11:44:02;;;;;;;6.50;5.18;;;;;31.00;101314.00;;;;5068493;28;20558;-82
2021/07/03 11:46:29;;;;;;;6.88;5.50;;;;;31.20;101320.00;;;;5068388;28;20572;-82
2021/07/03 11:48:58;;;;;;;6.13;5.15;;;;;31.20;101309.00;;;;5068449;28;20308;-83
2021/07/03 11:51:25;;;;;;;5.38;4.68;;;;;31.20;101315.00;;;;5073772;28;20202;-83
2021/07/03 11:53:53;;;;;;;6.72;5.00;;;;;31.20;101311.00;;;;5071828;28;20198;-83
2021/07/03 11:56:22;;;;;;;5.90;5.15;;;;;31.20;101312.00;;;;5074642;28;20194;-84
2021/07/03 11:58:51;;;;;;;6.10;5.47;;;;;31.20;101304.00;;;;5072400;28;20234;-82
2021/07/03 12:01:20;;;;;;;6.65;4.85;;;;;31.20;101305.00;;;;5072969;28;20272;-83
2021/07/03 12:03:48;;;;;;;7.63;5.60;;;;;31.20;101302.00;;;;5067653;28;20193;-84
2021/07/03 12:06:20;;;;;;;4.95;4.38;;;;;31.10;101307.00;;;;5071625;28;20206;-80